Time;durP1;ratioP1;P1;durP2;ratioP2;P2;SDS_P1;SDS_P2;PMS_P1;PMS_P2;Temp;Humidity;BMP_temperature;BMP_pressure;BME280_temperature;BME280_humidity;BME280_pressure;Samples;Min_cycle;Max_cycle;Signal;HPM_P1;HPM_P2
2023/12/24 00:01:54;;;;;;;1.13;0.73;;;;;;;8.41;100.00;96113.72;5036688;28;20240;-68
2023/12/24 00:04:21;;;;;;;0.47;0.47;;;;;;;8.28;100.00;96116.03;5035490;28;20197;-68
2023/12/24 00:06:47;;;;;;;0.40;0.40;;;;;;;8.44;100.00;96110.75;5036770;28;20983;-65
2023/12/24 00:09:14;;;;;;;0.40;0.40;;;;;;;8.46;100.00;96104.34;5037004;28;20208;-69
2023/12/24 00:11:41;;;;;;;1.80;0.97;;;;;;;8.36;100.00;96105.50;5035930;28;20216;-68
2023/12/24 00:14:07;;;;;;;0.40;0.40;;;;;;;8.33;100.00;96113.72;5035161;28;20730;-69
2023/12/24 00:16:33;;;;;;;0.60;0.60;;;;;;;8.34;100.00;96108.31;5036373;28;20267;-69
2023/12/24 00:19:01;;;;;;;0.40;0.40;;;;;;;8.46;100.00;96104.34;5036860;28;20208;-68
2023/12/24 00:21:28;;;;;;;0.47;0.47;;;;;;;8.27;100.00;96115.19;5036146;28;20573;-69
2023/12/24 00:23:54;;;;;;;0.40;0.40;;;;;;;8.20;100.00;96114.22;5037320;28;20212;-67
2023/12/24 00:26:21;;;;;;;0.33;0.33;;;;;;;8.44;100.00;96122.09;5035361;28;20208;-69
2023/12/24 00:28:49;;;;;;;0.50;0.50;;;;;;;8.31;100.00;96128.81;5037181;28;20283;-70
2023/12/24 00:31:15;;;;;;;0.70;0.70;;;;;;;8.37;100.00;96125.53;5037464;28;20218;-68
2023/12/24 00:33:42;;;;;;;0.37;0.37;;;;;;;8.36;100.00;96129.13;5038035;28;20918;-70
2023/12/24 00:36:09;;;;;;;2.43;0.50;;;;;;;8.48;100.00;96118.94;5037746;28;20228;-68
2023/12/24 00:38:36;;;;;;;0.67;0.40;;;;;;;8.48;100.00;96123.38;5037044;28;20205;-70
2023/12/24 00:41:02;;;;;;;0.40;0.40;;;;;;;8.48;100.00;96123.38;5037499;28;20201;-71
2023/12/24 00:43:29;;;;;;;0.30;0.30;;;;;;;8.43;100.00;96123.06;5037567;28;20221;-68
2023/12/24 00:45:55;;;;;;;0.40;0.40;;;;;;;8.26;100.00;96123.22;5037703;28;20216;-70
2023/12/24 00:48:22;;;;;;;0.40;0.40;;;;;;;8.43;100.00;96114.38;5037463;28;20205;-70
2023/12/24 00:50:48;;;;;;;0.30;0.30;;;;;;;8.33;100.00;96135.53;5037188;28;20831;-68
2023/12/24 00:53:16;;;;;;;0.33;0.33;;;;;;;8.46;100.00;96120.09;5037370;28;20221;-70
2023/12/24 00:55:43;;;;;;;0.40;0.40;;;;;;;8.32;100.00;96098.97;5036793;28;20197;-72
2023/12/24 00:58:09;;;;;;;0.50;0.50;;;;;;;8.34;100.00;96110.09;5037664;28;20690;-65
2023/12/24 01:00:36;;;;;;;0.40;0.40;;;;;;;8.30;100.00;96103.53;5036567;28;20715;-68
2023/12/24 01:03:02;;;;;;;0.40;0.40;;;;;;;8.35;100.00;96107.31;5037168;28;20251;-68
2023/12/24 01:05:29;;;;;;;0.40;0.40;;;;;;;8.30;100.00;96106.16;5037329;28;20582;-69
2023/12/24 01:07:55;;;;;;;0.30;0.30;;;;;;;8.21;100.00;96115.88;5036932;28;20208;-68
2023/12/24 01:10:23;;;;;;;0.40;0.40;;;;;;;8.32;100.00;96106.84;5036212;28;20229;-67
2023/12/24 01:12:50;;;;;;;0.40;0.40;;;;;;;8.25;100.00;96108.47;5037217;28;20279;-68
2023/12/24 01:15:16;;;;;;;0.40;0.40;;;;;;;8.28;100.00;96106.34;5037622;28;20205;-65
2023/12/24 01:17:43;;;;;;;0.30;0.30;;;;;;;8.28;100.00;96113.41;5036616;28;20236;-67
2023/12/24 01:20:13;;;;;;;0.40;0.40;;;;;;;8.45;100.00;96102.69;5037381;28;20674;-68
2023/12/24 01:22:40;;;;;;;1.37;0.53;;;;;;;8.32;100.00;96112.06;5036222;28;20213;-67
2023/12/24 01:25:07;;;;;;;0.30;0.30;;;;;;;8.24;100.00;96099.78;5037103;28;20297;-67
2023/12/24 01:27:35;;;;;;;1.17;0.80;;;;;;;8.45;100.00;96112.38;5036668;28;20205;-68
2023/12/24 01:30:01;;;;;;;0.30;0.30;;;;;;;8.18;100.00;96094.38;5037373;28;20205;-68
2023/12/24 01:32:28;;;;;;;0.30;0.30;;;;;;;8.24;100.00;96098.97;5035472;28;20766;-65
2023/12/24 01:34:55;;;;;;;0.40;0.40;;;;;;;8.27;100.00;96107.31;5036876;28;20213;-69
2023/12/24 01:37:21;;;;;;;0.40;0.40;;;;;;;8.17;100.00;96111.09;5035782;28;20228;-68
2023/12/24 01:39:48;;;;;;;0.30;0.30;;;;;;;8.26;100.00;96097.81;5037127;28;20209;-68
2023/12/24 01:42:14;;;;;;;0.50;0.50;;;;;;;8.20;100.00;96108.97;5036196;28;20217;-68
2023/12/24 01:44:42;;;;;;;0.40;0.40;;;;;;;8.32;100.00;96098.97;5036532;28;20209;-68
2023/12/24 01:47:09;;;;;;;0.50;0.50;;;;;;;8.25;100.00;96108.47;5036225;28;20243;-69
2023/12/24 01:49:36;;;;;;;0.30;0.30;;;;;;;8.34;100.00;96099.59;5036386;28;20209;-68
2023/12/24 01:52:03;;;;;;;0.60;0.47;;;;;;;8.21;100.00;96104.53;5036071;28;20243;-68
2023/12/24 01:54:32;;;;;;;0.30;0.30;;;;;;;8.40;100.00;96112.06;5036193;28;20204;-68
2023/12/24 01:56:59;;;;;;;0.50;0.50;;;;;;;8.31;100.00;96136.69;5035761;28;20302;-69
2023/12/24 01:59:27;;;;;;;0.40;0.40;;;;;;;8.44;100.00;96113.38;5035771;28;20201;-68
2023/12/24 02:01:55;;;;;;;0.40;0.40;;;;;;;8.34;100.00;96125.84;5035923;28;20605;-68
2023/12/24 02:04:22;;;;;;;0.67;0.50;;;;;;;8.32;100.00;96119.97;5036307;28;20312;-68
2023/12/24 02:06:50;;;;;;;0.50;0.50;;;;;;;8.37;100.00;96109.78;5036139;28;20201;-68
2023/12/24 02:09:17;;;;;;;0.30;0.30;;;;;;;8.30;100.00;96083.38;5035904;28;20562;-68
2023/12/24 02:11:43;;;;;;;0.30;0.30;;;;;;;8.34;100.00;96089.94;5035284;28;20322;-69
2023/12/24 02:14:10;;;;;;;0.40;0.40;;;;;;;8.24;100.00;96084.03;5036323;28;20204;-68
2023/12/24 02:16:40;;;;;;;0.40;0.40;;;;;;;8.46;100.00;96057.06;5035088;28;20224;-68
2023/12/24 02:19:16;;;;;;;0.30;0.30;;;;;;;8.40;100.00;96052.50;5035309;28;20213;-68
2023/12/24 02:21:44;;;;;;;0.70;0.70;;;;;;;8.36;100.00;96045.94;5034350;28;20215;-68
2023/12/24 02:24:11;;;;;;;0.30;0.30;;;;;;;8.27;100.00;96048.75;5036922;28;20736;-68
2023/12/24 02:26:43;;;;;;;0.30;0.30;;;;;;;8.27;100.00;96051.38;5035024;28;20906;-68
2023/12/24 02:29:15;;;;;;;0.40;0.40;;;;;;;8.42;100.00;96054.97;5036170;28;20226;-68
2023/12/24 02:31:46;;;;;;;0.40;0.40;;;;;;;8.38;100.00;96049.22;5035334;28;20288;-68
2023/12/24 02:34:15;;;;;;;0.30;0.30;;;;;;;8.38;100.00;96049.22;5035709;28;20209;-68
2023/12/24 02:36:42;;;;;;;0.40;0.40;;;;;;;8.27;100.00;96036.44;5035244;28;20359;-68
2023/12/24 02:39:10;;;;;;;0.37;0.37;;;;;;;8.36;100.00;96056.44;5035934;28;20280;-68
2023/12/24 02:41:37;;;;;;;0.40;0.40;;;;;;;8.39;100.00;96060.53;5034883;28;20205;-68
2023/12/24 02:44:03;;;;;;;0.40;0.40;;;;;;;8.18;100.00;96062.88;5035447;28;20201;-68
2023/12/24 02:46:30;;;;;;;0.47;0.30;;;;;;;8.33;100.00;96066.47;5035886;28;20201;-71
2023/12/24 02:48:56;;;;;;;0.40;0.40;;;;;;;8.24;100.00;96051.72;5035330;28;20201;-69
2023/12/24 02:51:23;;;;;;;0.40;0.40;;;;;;;8.39;100.00;96050.03;5035015;28;20223;-70
2023/12/24 02:53:50;;;;;;;0.40;0.40;;;;;;;8.34;100.00;96044.47;5035161;28;20304;-70
2023/12/24 02:56:18;;;;;;;0.40;0.40;;;;;;;8.49;100.00;96052.31;5034740;28;20685;-69
2023/12/24 02:58:45;;;;;;;0.47;0.47;;;;;;;8.33;100.00;96063.84;5035050;28;20299;-71
2023/12/24 03:01:11;;;;;;;0.60;0.40;;;;;;;8.35;100.00;96070.56;5033918;28;20217;-68
2023/12/24 03:03:38;;;;;;;0.40;0.40;;;;;;;8.44;100.00;96068.72;5033539;28;20216;-69
2023/12/24 03:06:05;;;;;;;0.50;0.50;;;;;;;8.32;100.00;96067.44;5033626;28;20205;-68
2023/12/24 03:08:31;;;;;;;0.40;0.40;;;;;;;8.44;100.00;96084.47;5034901;28;20754;-69
2023/12/24 03:10:58;;;;;;;1.90;1.00;;;;;;;8.40;100.00;96093.69;5034843;28;20202;-68
2023/12/24 03:13:26;;;;;;;0.30;0.30;;;;;;;8.62;100.00;96076.22;5035284;28;20224;-68
2023/12/24 03:15:52;;;;;;;0.40;0.40;;;;;;;8.37;100.00;96091.41;5035159;28;20215;-68
2023/12/24 03:18:19;;;;;;;0.63;0.50;;;;;;;8.52;100.00;96078.22;5034816;28;20225;-68
2023/12/24 03:20:45;;;;;;;0.60;0.60;;;;;;;8.40;100.00;96084.03;5033499;28;20263;-68
2023/12/24 03:23:12;;;;;;;0.40;0.40;;;;;;;8.47;100.00;96100.72;5034259;28;20229;-68
2023/12/24 03:25:38;;;;;;;0.40;0.40;;;;;;;8.47;100.00;96092.03;5035624;28;20197;-68
2023/12/24 03:28:06;;;;;;;0.40;0.40;;;;;;;8.49;100.00;96093.53;5035292;28;20205;-68
2023/12/24 03:30:34;;;;;;;1.00;0.50;;;;;;;8.53;100.00;96100.88;5035099;28;20354;-68
2023/12/24 03:33:00;;;;;;;0.50;0.50;;;;;;;8.45;100.00;96107.13;5033528;28;21012;-68
2023/12/24 03:35:27;;;;;;;0.60;0.60;;;;;;;8.45;100.00;96110.56;5036125;28;20259;-72
2023/12/24 03:37:53;;;;;;;0.30;0.30;;;;;;;8.41;100.00;96104.00;5037676;28;20221;-69
2023/12/24 03:40:20;;;;;;;0.30;0.30;;;;;;;8.45;100.00;96102.69;5038336;28;21000;-68
2023/12/24 03:42:47;;;;;;;1.43;0.93;;;;;;;8.58;100.00;96110.91;5038218;28;20217;-68
2023/12/24 03:45:14;;;;;;;2.57;0.50;;;;;;;8.44;100.00;96110.75;5037251;28;20583;-68
2023/12/24 03:47:42;;;;;;;0.40;0.40;;;;;;;8.54;100.00;96088.56;5034773;28;20201;-68
2023/12/24 03:50:09;;;;;;;0.30;0.30;;;;;;;8.49;100.00;96090.91;5034101;28;20284;-68
2023/12/24 03:52:34;;;;;;;0.30;0.30;;;;;;;8.41;100.00;96097.97;5034450;28;20220;-72
2023/12/24 03:55:01;;;;;;;0.50;0.40;;;;;;;8.49;100.00;96091.69;5033746;28;20303;-68
2023/12/24 03:57:27;;;;;;;0.40;0.40;;;;;;;8.53;100.00;96094.81;5035154;28;20245;-69
2023/12/24 03:59:54;;;;;;;0.40;0.40;;;;;;;8.48;100.00;96074.31;5034471;28;20209;-71
2023/12/24 04:02:24;;;;;;;0.50;0.50;;;;;;;8.33;100.00;96088.28;5033673;28;20228;-69
2023/12/24 04:04:52;;;;;;;0.93;0.50;;;;;;;8.46;100.00;96072.81;5034619;28;20235;-69
2023/12/24 04:07:18;;;;;;;1.07;0.50;;;;;;;8.46;100.00;96082.53;5033578;28;20275;-71
2023/12/24 04:09:45;;;;;;;0.30;0.30;;;;;;;8.30;100.00;96074.66;5034818;28;20211;-70
2023/12/24 04:12:12;;;;;;;0.40;0.40;;;;;;;8.38;100.00;96082.53;5033539;28;20225;-68
2023/12/24 04:14:39;;;;;;;0.50;0.50;;;;;;;8.46;100.00;96087.78;5037779;28;20603;-68
2023/12/24 04:17:06;;;;;;;0.67;0.40;;;;;;;8.45;100.00;96083.50;5037515;28;20229;-68
2023/12/24 04:19:32;;;;;;;0.43;0.43;;;;;;;8.62;100.00;96080.69;5038364;28;20446;-68
2023/12/24 04:22:00;;;;;;;2.50;0.37;;;;;;;8.60;100.00;96078.22;5037639;28;20304;-69
2023/12/24 04:24:27;;;;;;;0.20;0.20;;;;;;;8.49;100.00;96094.31;5038784;28;20201;-68
2023/12/24 04:26:53;;;;;;;0.50;0.50;;;;;;;8.38;100.00;96079.94;5037747;28;21245;-68
2023/12/24 04:29:20;;;;;;;0.50;0.50;;;;;;;8.28;100.00;96063.53;5037813;28;20201;-67
2023/12/24 04:31:47;;;;;;;0.53;0.53;;;;;;;8.31;100.00;96066.66;5037370;28;20205;-68
2023/12/24 04:34:13;;;;;;;0.40;0.40;;;;;;;8.36;100.00;96043.31;5037275;28;20201;-67
2023/12/24 04:36:40;;;;;;;0.40;0.40;;;;;;;8.35;100.00;96054.81;5038620;28;20201;-68
2023/12/24 04:39:08;;;;;;;0.30;0.30;;;;;;;8.55;100.00;96061.31;5038544;28;20217;-68
2023/12/24 04:41:34;;;;;;;0.30;0.30;;;;;;;8.46;100.00;96056.25;5036896;28;20279;-70
2023/12/24 04:44:01;;;;;;;0.50;0.50;;;;;;;8.55;100.00;96051.66;5037656;28;20267;-71
2023/12/24 04:46:27;;;;;;;0.97;0.60;;;;;;;8.36;100.00;96053.00;5037785;28;20292;-69
2023/12/24 04:48:54;;;;;;;0.47;0.47;;;;;;;8.36;100.00;96043.31;5037568;28;20204;-67
2023/12/24 04:51:20;;;;;;;0.40;0.30;;;;;;;8.29;100.00;96029.22;5037462;28;20200;-71
2023/12/24 04:53:47;;;;;;;0.40;0.40;;;;;;;8.39;100.00;96036.91;5037576;28;20229;-70
2023/12/24 04:56:21;;;;;;;0.40;0.40;;;;;;;8.59;100.00;96050.31;5037214;28;20676;-70
2023/12/24 04:58:47;;;;;;;0.50;0.50;;;;;;;8.47;100.00;96057.91;5037921;28;20595;-68
2023/12/24 05:01:15;;;;;;;0.30;0.30;;;;;;;8.55;100.00;96062.16;5035015;28;20209;-68
2023/12/24 05:03:42;;;;;;;0.40;0.40;;;;;;;8.36;100.00;96072.19;5034208;28;20446;-68
2023/12/24 05:06:08;;;;;;;0.73;0.50;;;;;;;8.44;100.00;96064.31;5036301;28;20197;-68
2023/12/24 05:08:35;;;;;;;0.40;0.40;;;;;;;8.24;100.00;96056.97;5036753;28;20197;-68
2023/12/24 05:11:04;;;;;;;0.40;0.40;;;;;;;8.49;100.00;96054.94;5035582;28;20201;-66
2023/12/24 05:13:32;;;;;;;0.33;0.33;;;;;;;8.49;100.00;96057.56;5036418;28;20225;-67
2023/12/24 05:15:59;;;;;;;0.20;0.20;;;;;;;8.28;100.00;96068.78;5036685;28;20827;-68
2023/12/24 05:18:25;;;;;;;0.40;0.30;;;;;;;8.35;100.00;96054.81;5036687;28;20220;-69
2023/12/24 05:20:52;;;;;;;0.67;0.50;;;;;;;8.20;100.00;96030.25;5037499;28;20203;-70
2023/12/24 05:23:20;;;;;;;1.23;0.57;;;;;;;8.59;100.00;96024.06;5036304;28;21143;-69
2023/12/24 05:25:47;;;;;;;0.30;0.30;;;;;;;8.40;100.00;96025.41;5037378;28;20861;-67
2023/12/24 05:28:14;;;;;;;0.37;0.30;;;;;;;8.52;100.00;96024.91;5037223;28;20204;-68
2023/12/24 05:30:42;;;;;;;0.30;0.30;;;;;;;8.57;100.00;96022.59;5036439;28;20723;-67
2023/12/24 05:33:09;;;;;;;0.40;0.40;;;;;;;8.56;100.00;96015.69;5037167;28;20225;-68
2023/12/24 05:35:35;;;;;;;0.40;0.40;;;;;;;8.39;100.00;96023.78;5036441;28;20575;-68
2023/12/24 05:38:02;;;;;;;0.50;0.50;;;;;;;8.19;100.00;96043.53;5037230;28;20239;-69
2023/12/24 05:40:28;;;;;;;0.30;0.30;;;;;;;8.37;100.00;96010.03;5036327;28;20208;-68
2023/12/24 05:42:55;;;;;;;0.40;0.40;;;;;;;8.31;100.00;96015.94;5036138;28;20240;-66
2023/12/24 05:45:22;;;;;;;0.57;0.40;;;;;;;8.45;100.00;96028.38;5036636;28;20205;-68
2023/12/24 05:47:49;;;;;;;0.40;0.40;;;;;;;8.64;100.00;96029.63;5036482;28;20197;-67
2023/12/24 05:50:16;;;;;;;0.67;0.60;;;;;;;8.47;100.00;96036.91;5037480;28;21218;-69
2023/12/24 05:52:43;;;;;;;0.50;0.50;;;;;;;8.48;100.00;96032.28;5035345;28;20225;-67
2023/12/24 05:55:11;;;;;;;0.90;0.53;;;;;;;8.66;100.00;96026.81;5035931;28;20201;-66
2023/12/24 05:57:37;;;;;;;0.40;0.40;;;;;;;8.59;100.00;96024.06;5036016;28;20221;-67
2023/12/24 06:00:05;;;;;;;0.30;0.30;;;;;;;8.58;100.00;96017.16;5036901;28;21188;-66
2023/12/24 06:02:32;;;;;;;0.40;0.40;;;;;;;8.55;100.00;96017.50;5035262;28;20236;-68
2023/12/24 06:05:00;;;;;;;0.37;0.37;;;;;;;8.70;100.00;96020.22;5036095;28;20201;-68
2023/12/24 06:07:26;;;;;;;0.83;0.60;;;;;;;8.54;100.00;96007.97;5036228;28;20201;-67
2023/12/24 06:09:53;;;;;;;0.30;0.30;;;;;;;8.66;100.00;96001.34;5037403;28;20205;-69
2023/12/24 06:12:19;;;;;;;0.33;0.30;;;;;;;8.69;100.00;96005.44;5036156;28;20223;-70
2023/12/24 06:14:46;;;;;;;3.40;0.50;;;;;;;8.63;100.00;95995.63;5036426;28;20212;-70
2023/12/24 06:17:12;;;;;;;0.40;0.40;;;;;;;8.71;100.00;95999.03;5035562;28;20255;-71
2023/12/24 06:19:39;;;;;;;0.40;0.40;;;;;;;8.76;100.00;96003.78;5036182;28;20197;-70
2023/12/24 06:22:07;;;;;;;0.87;0.30;;;;;;;8.83;100.00;96002.09;5035807;28;20231;-71
2023/12/24 06:24:34;;;;;;;1.40;0.73;;;;;;;8.79;100.00;95993.75;5035097;28;20837;-69
2023/12/24 06:27:00;;;;;;;0.40;0.40;;;;;;;8.65;100.00;96004.97;5035036;28;20201;-72
2023/12/24 06:29:27;;;;;;;0.40;0.40;;;;;;;8.73;100.00;96001.50;5035801;28;20566;-68
2023/12/24 06:31:55;;;;;;;0.40;0.40;;;;;;;8.90;100.00;96003.06;5035296;28;20252;-68
2023/12/24 06:34:22;;;;;;;0.43;0.40;;;;;;;8.78;100.00;96002.63;5035124;28;20216;-70
2023/12/24 06:36:48;;;;;;;0.53;0.40;;;;;;;8.75;100.00;95991.66;5035230;28;20209;-69
2023/12/24 06:39:16;;;;;;;0.30;0.30;;;;;;;8.91;100.00;96010.78;5035676;28;20221;-68
2023/12/24 06:41:45;;;;;;;0.50;0.50;;;;;;;8.78;100.00;96014.94;5034937;28;20201;-68
2023/12/24 06:44:12;;;;;;;0.53;0.40;;;;;;;8.85;100.00;95994.88;5035489;28;20241;-68
2023/12/24 06:46:38;;;;;;;0.40;0.40;;;;;;;8.84;100.00;95999.31;5034810;28;20201;-68
2023/12/24 06:49:05;;;;;;;0.90;0.67;;;;;;;8.96;100.00;95992.69;5035450;28;20567;-68
2023/12/24 06:51:31;;;;;;;0.50;0.50;;;;;;;8.75;100.00;95997.69;5034246;28;20208;-68
2023/12/24 06:53:58;;;;;;;0.50;0.50;;;;;;;8.86;100.00;96002.59;5036207;28;20201;-68
2023/12/24 06:56:26;;;;;;;0.57;0.50;;;;;;;9.14;100.00;95990.59;5035374;28;20571;-68
2023/12/24 06:58:52;;;;;;;0.40;0.40;;;;;;;8.90;100.00;95996.00;5034672;28;20241;-68
2023/12/24 07:01:19;;;;;;;0.50;0.50;;;;;;;8.88;100.00;95982.19;5035070;28;20204;-69
2023/12/24 07:03:45;;;;;;;0.87;0.50;;;;;;;9.00;100.00;95977.38;5035562;28;20232;-68
2023/12/24 07:06:12;;;;;;;0.40;0.40;;;;;;;9.02;100.00;95970.94;5033711;28;20212;-68
2023/12/24 07:08:39;;;;;;;0.40;0.40;;;;;;;8.92;100.00;95959.84;5032987;28;20258;-65
2023/12/24 07:11:05;;;;;;;0.30;0.30;;;;;;;8.83;100.00;95950.38;5034613;28;20204;-69
2023/12/24 07:13:33;;;;;;;0.80;0.53;;;;;;;9.08;100.00;95969.47;5033240;28;20229;-67
2023/12/24 07:16:00;;;;;;;0.80;0.80;;;;;;;9.04;100.00;95970.78;5034493;28;20205;-73
2023/12/24 07:18:27;;;;;;;1.03;0.50;;;;;;;8.99;100.00;95971.31;5034316;28;20232;-70
2023/12/24 07:20:53;;;;;;;0.40;0.40;;;;;;;9.03;100.00;95974.41;5032263;28;20339;-72
2023/12/24 07:23:20;;;;;;;0.40;0.40;;;;;;;8.98;100.00;95974.09;5034062;28;20232;-68
2023/12/24 07:25:46;;;;;;;1.20;0.60;;;;;;;9.14;100.00;95974.84;5035015;28;20580;-69
2023/12/24 07:28:13;;;;;;;0.40;0.40;;;;;;;9.01;100.00;95973.75;5036792;28;20224;-66
2023/12/24 07:30:41;;;;;;;0.80;0.53;;;;;;;9.13;100.00;95978.44;5036040;28;20223;-65
2023/12/24 07:33:07;;;;;;;0.30;0.30;;;;;;;8.88;100.00;95979.56;5037600;28;20227;-67
2023/12/24 07:35:34;;;;;;;0.30;0.30;;;;;;;8.92;100.00;95965.09;5035303;28;20631;-70
2023/12/24 07:38:01;;;;;;;0.47;0.47;;;;;;;8.93;100.00;95961.47;5034123;28;20252;-68
2023/12/24 07:40:27;;;;;;;0.40;0.40;;;;;;;9.02;100.00;95955.19;5034683;28;20208;-68
2023/12/24 07:42:54;;;;;;;0.40;0.40;;;;;;;8.95;100.00;95963.94;5034033;28;20232;-68
2023/12/24 07:45:22;;;;;;;0.20;0.20;;;;;;;8.85;100.00;95969.41;5033415;28;20201;-66
2023/12/24 07:47:50;;;;;;;0.40;0.40;;;;;;;8.91;100.00;95965.28;5035923;28;20746;-67
2023/12/24 07:50:16;;;;;;;0.50;0.50;;;;;;;8.95;100.00;95974.44;5037912;28;20205;-68
2023/12/24 07:52:43;;;;;;;0.40;0.40;;;;;;;8.96;100.00;95969.03;5036366;28;20718;-69
2023/12/24 07:55:09;;;;;;;0.40;0.40;;;;;;;9.13;100.00;95962.69;5038672;28;20197;-69
2023/12/24 07:57:36;;;;;;;0.40;0.40;;;;;;;9.16;100.00;95970.19;5034693;28;20670;-69
2023/12/24 08:00:07;;;;;;;0.83;0.60;;;;;;;9.23;100.00;95964.06;5037777;28;20252;-65
2023/12/24 08:02:34;;;;;;;0.77;0.50;;;;;;;8.87;100.00;95956.94;5035704;28;20229;-68
2023/12/24 08:05:01;;;;;;;1.43;0.60;;;;;;;8.99;100.00;95954.72;5036099;28;20201;-68
2023/12/24 08:07:28;;;;;;;0.40;0.40;;;;;;;8.79;100.00;95933.31;5037488;28;20197;-68
2023/12/24 08:09:56;;;;;;;0.60;0.60;;;;;;;8.83;100.00;95952.19;5036250;28;20205;-69
2023/12/24 08:12:22;;;;;;;0.77;0.60;;;;;;;9.11;100.00;95938.38;5034682;28;20217;-68
2023/12/24 08:14:49;;;;;;;0.73;0.73;;;;;;;8.80;100.00;95934.97;5036321;28;20201;-68
2023/12/24 08:17:15;;;;;;;2.00;0.80;;;;;;;8.92;100.00;95943.25;5033219;28;20292;-68
2023/12/24 08:19:42;;;;;;;0.97;0.73;;;;;;;8.93;100.00;95945.72;5036341;28;20228;-68
2023/12/24 08:22:11;;;;;;;1.23;0.40;;;;;;;9.14;100.00;95948.53;5037040;28;20596;-68
2023/12/24 08:24:38;;;;;;;0.50;0.50;;;;;;;9.00;100.00;95941.41;5032436;28;20204;-68
2023/12/24 08:27:05;;;;;;;0.40;0.40;;;;;;;8.84;100.00;95945.94;5033979;28;20205;-68
2023/12/24 08:29:32;;;;;;;0.40;0.40;;;;;;;8.91;100.00;95952.97;5036632;28;20197;-68
2023/12/24 08:31:59;;;;;;;0.40;0.30;;;;;;;9.02;100.00;95964.88;5035768;28;20225;-68
2023/12/24 08:34:24;;;;;;;0.93;0.57;;;;;;;8.99;100.00;95960.78;5037484;28;20205;-68
2023/12/24 08:36:51;;;;;;;0.43;0.43;;;;;;;9.10;100.00;95957.78;5036328;28;20863;-72
2023/12/24 08:39:19;;;;;;;0.43;0.43;;;;;;;9.31;100.00;95955.31;5035161;28;20226;-69
2023/12/24 08:41:45;;;;;;;0.50;0.40;;;;;;;9.02;100.00;95965.69;5035636;28;20209;-69
2023/12/24 08:44:12;;;;;;;2.37;0.63;;;;;;;8.96;100.00;95968.19;5037200;28;20209;-68
2023/12/24 08:46:39;;;;;;;0.50;0.40;;;;;;;9.01;100.00;95958.78;5037229;28;20197;-69
2023/12/24 08:49:07;;;;;;;0.40;0.40;;;;;;;8.92;100.00;95967.72;5036204;28;20213;-70
2023/12/24 08:51:34;;;;;;;0.60;0.60;;;;;;;9.04;100.00;95968.97;5036523;28;20598;-69
2023/12/24 08:54:01;;;;;;;0.60;0.60;;;;;;;9.09;100.00;95971.91;5036680;28;20213;-68
2023/12/24 08:56:28;;;;;;;0.53;0.53;;;;;;;9.29;100.00;95978.31;5036692;28;20595;-69
2023/12/24 08:58:55;;;;;;;0.40;0.40;;;;;;;9.18;100.00;95961.16;5035145;28;20225;-67
2023/12/24 09:01:21;;;;;;;0.80;0.70;;;;;;;9.12;100.00;95968.91;5036418;28;20212;-69
2023/12/24 09:03:48;;;;;;;0.30;0.30;;;;;;;9.01;100.00;95963.25;5035764;28;20690;-68
2023/12/24 09:06:14;;;;;;;0.90;0.70;;;;;;;9.19;100.00;95989.06;5037198;28;20209;-66
2023/12/24 09:08:41;;;;;;;0.30;0.30;;;;;;;9.08;100.00;95976.31;5036812;28;20213;-69
2023/12/24 09:11:08;;;;;;;0.90;0.80;;;;;;;9.19;100.00;95991.72;5033070;28;20201;-69
2023/12/24 09:13:36;;;;;;;0.50;0.50;;;;;;;9.18;100.00;95981.38;5035170;28;20808;-69
2023/12/24 09:16:03;;;;;;;0.60;0.50;;;;;;;9.20;100.00;95974.94;5035645;28;20206;-69
2023/12/24 09:18:29;;;;;;;2.40;1.40;;;;;;;9.23;100.00;95963.28;5035227;28;20217;-68
2023/12/24 09:20:56;;;;;;;0.70;0.70;;;;;;;9.05;100.00;95986.38;5034049;28;20304;-67
2023/12/24 09:23:22;;;;;;;1.33;0.80;;;;;;;9.14;100.00;95974.84;5035721;28;21045;-70
2023/12/24 09:25:49;;;;;;;0.60;0.60;;;;;;;9.13;100.00;95966.09;5034477;28;20674;-68
2023/12/24 09:28:15;;;;;;;1.67;0.80;;;;;;;9.21;100.00;95975.75;5034690;28;20306;-69
2023/12/24 09:30:43;;;;;;;0.80;0.80;;;;;;;9.40;100.00;95964.78;5035272;28;20216;-69
2023/12/24 09:33:10;;;;;;;0.50;0.40;;;;;;;9.26;100.00;95960.28;5033644;28;20221;-69
2023/12/24 09:35:36;;;;;;;0.40;0.40;;;;;;;9.27;100.00;95965.34;5033518;28;20206;-68
2023/12/24 09:38:03;;;;;;;0.97;0.70;;;;;;;9.44;100.00;95950.28;5035080;28;20210;-69
2023/12/24 09:40:30;;;;;;;1.00;0.90;;;;;;;9.53;100.00;95944.75;5034147;28;20233;-69
2023/12/24 09:42:56;;;;;;;1.23;0.63;;;;;;;9.54;100.00;95940.34;5033407;28;20441;-69
2023/12/24 09:45:23;;;;;;;0.63;0.57;;;;;;;9.50;100.00;95950.38;5034702;28;20201;-69
2023/12/24 09:47:51;;;;;;;0.40;0.40;;;;;;;9.58;100.00;95938.97;5033884;28;20213;-69
2023/12/24 09:50:17;;;;;;;1.50;0.70;;;;;;;9.46;100.00;95929.88;5033618;28;20556;-68
2023/12/24 09:52:45;;;;;;;0.63;0.63;;;;;;;9.59;100.00;95930.09;5033960;28;20241;-68
2023/12/24 09:55:11;;;;;;;0.97;0.60;;;;;;;9.48;100.00;95920.81;5034181;28;20202;-68
2023/12/24 09:57:39;;;;;;;1.17;0.77;;;;;;;9.75;100.00;95921.06;5035364;28;20204;-68
2023/12/24 10:00:09;;;;;;;1.27;0.80;;;;;;;9.61;100.00;95921.03;5034275;28;20225;-69
2023/12/24 10:02:36;;;;;;;0.67;0.67;;;;;;;9.67;100.00;95924.75;5033860;28;20796;-69
2023/12/24 10:05:05;;;;;;;0.70;0.70;;;;;;;9.73;100.00;95915.13;5032559;28;20216;-68
2023/12/24 10:07:37;;;;;;;1.47;0.50;;;;;;;9.97;100.00;95925.44;5034778;28;20990;-67
2023/12/24 10:10:04;;;;;;;0.60;0.60;;;;;;;9.60;100.00;95919.41;5032402;28;20205;-70
2023/12/24 10:12:31;;;;;;;2.33;0.60;;;;;;;9.69;100.00;95919.13;5032478;28;20734;-68
2023/12/24 10:14:58;;;;;;;0.50;0.50;;;;;;;9.80;100.00;95905.53;5033110;28;20201;-68
2023/12/24 10:17:28;;;;;;;1.83;1.17;;;;;;;9.98;100.00;95921.84;5035043;28;20201;-68
2023/12/24 10:19:55;;;;;;;1.40;0.50;;;;;;;9.64;100.00;95904.06;5035233;28;20251;-68
2023/12/24 10:22:25;;;;;;;1.10;1.00;;;;;;;10.00;100.00;95922.44;5033500;28;20331;-68
2023/12/24 10:25:00;;;;;;;1.40;0.40;;;;;;;10.00;100.00;95911.91;5033455;28;20193;-68
2023/12/24 10:27:26;;;;;;;2.00;1.17;;;;;;;9.90;100.00;95911.38;5034949;28;20193;-68
2023/12/24 10:29:53;;;;;;;0.63;0.50;;;;;;;9.84;100.00;95904.19;5034403;28;20205;-68
2023/12/24 10:32:24;;;;;;;1.80;1.37;;;;;;;9.99;100.00;95909.47;5020852;28;20225;-68
2023/12/24 10:34:56;;;;;;;0.50;0.50;;;;;;;9.94;100.00;95902.09;5021727;28;20209;-69
2023/12/24 10:37:26;;;;;;;0.67;0.60;;;;;;;10.06;100.00;95899.88;5032004;28;20671;-70
2023/12/24 10:39:53;;;;;;;1.23;0.70;;;;;;;9.80;100.00;95905.53;5034494;28;20252;-70
2023/12/24 10:42:20;;;;;;;0.50;0.50;;;;;;;9.81;100.00;95901.09;5033691;28;20729;-69
2023/12/24 10:44:47;;;;;;;0.30;0.30;;;;;;;9.62;100.00;95924.47;5031889;28;20495;-67
2023/12/24 10:47:13;;;;;;;0.83;0.63;;;;;;;9.78;100.00;95907.53;5032603;28;20554;-66
2023/12/24 10:49:40;;;;;;;1.83;0.57;;;;;;;9.71;100.00;95900.53;5027420;28;20217;-67
2023/12/24 10:52:07;;;;;;;0.50;0.50;;;;;;;9.85;100.00;95905.81;5031222;28;20271;-73
2023/12/24 10:54:45;;;;;;;0.50;0.50;;;;;;;9.94;100.00;95902.09;5026931;28;20789;-68
2023/12/24 10:57:35;;;;;;;0.40;0.40;;;;;;;9.86;100.00;95914.53;5031909;28;20201;-70
2023/12/24 11:00:09;;;;;;;0.60;0.60;;;;;;;9.91;100.00;95915.59;5032356;28;20255;-68
2023/12/24 11:02:53;;;;;;;0.80;0.70;;;;;;;9.98;100.00;95905.19;5031811;28;20312;-66
2023/12/24 11:05:52;;;;;;;0.57;0.57;;;;;;;10.09;100.00;95902.13;5032985;28;20290;-71
2023/12/24 11:08:37;;;;;;;1.07;0.97;;;;;;;9.99;100.00;95910.31;5032411;28;20620;-69
2023/12/24 11:11:17;;;;;;;1.47;0.90;;;;;;;9.99;100.00;95905.06;5032739;28;20202;-66
2023/12/24 11:14:08;;;;;;;0.57;0.57;;;;;;;9.76;100.00;95877.97;5034713;28;20233;-69
2023/12/24 11:16:41;;;;;;;0.50;0.50;;;;;;;9.80;100.00;95881.03;5034626;28;20299;-71
2023/12/24 11:19:45;;;;;;;1.20;0.83;;;;;;;9.97;100.00;95875.44;5033298;28;20209;-70
2023/12/24 11:22:17;;;;;;;1.03;0.63;;;;;;;9.77;100.00;95862.97;5034709;28;20225;-69
2023/12/24 11:28:43;;;;;;;0.93;0.60;;;;;;;10.02;100.00;95861.75;5031706;28;20215;-70
2023/12/24 11:31:13;;;;;;;0.60;0.60;;;;;;;9.81;100.00;95864.25;5034035;28;20574;-69
2023/12/24 11:54:29;;;;;;;1.57;0.80;;;;;;;10.13;100.00;95850.75;4874614;29;20688;-69
2023/12/24 12:00:50;;;;;;;0.50;0.50;;;;;;;10.13;100.00;95864.75;4934804;29;20228;-69
2023/12/24 12:04:19;;;;;;;0.77;0.77;;;;;;;10.31;100.00;95846.75;5026048;28;20722;-68
2023/12/24 12:06:53;;;;;;;1.53;0.53;;;;;;;10.10;100.00;95859.03;4969576;28;20207;-71